Time;durP1;ratioP1;P1;durP2;ratioP2;P2;SDS_P1;SDS_P2;PMS_P1;PMS_P2;Temp;Humidity;BMP_temperature;BMP_pressure;BME280_temperature;BME280_humidity;BME280_pressure;Samples;Min_cycle;Max_cycle;Signal;HPM_P1;HPM_P2
2021/12/20 00:00:23;;;;;;;0.83;0.13;;;;;;;;;;4999973;28;20018;-18
2021/12/20 00:02:52;;;;;;;0.38;0.20;;;;;;;;;;5017070;28;20037;-18
2021/12/20 00:05:19;;;;;;;0.50;0.20;;;;;;;;;;5017261;28;20158;-18
2021/12/20 00:07:46;;;;;;;0.63;0.32;;;;;;;;;;5016726;28;20041;-18
2021/12/20 00:10:14;;;;;;;0.40;0.17;;;;;;;;;;5017154;28;20040;-17
2021/12/20 00:12:40;;;;;;;0.50;0.20;;;;;;;;;;5016665;28;20096;-18
2021/12/20 00:15:08;;;;;;;0.30;0.20;;;;;;;;;;5017111;28;20400;-17
2021/12/20 00:17:35;;;;;;;0.15;0.15;;;;;;;;;;5017034;28;20030;-17
2021/12/20 00:20:02;;;;;;;1.35;0.43;;;;;;;;;;5016681;28;20056;-17
2021/12/20 00:22:28;;;;;;;0.82;0.30;;;;;;;;;;5016902;28;20026;-19
2021/12/20 00:24:55;;;;;;;0.43;0.10;;;;;;;;;;5016724;28;20421;-18
2021/12/20 00:27:22;;;;;;;0.70;0.28;;;;;;;;;;5016574;28;20487;-18
2021/12/20 00:29:49;;;;;;;0.38;0.30;;;;;;;;;;4999303;28;20103;-18
2021/12/20 00:32:15;;;;;;;;;;;;;;;;;;5017049;28;20104;-18
2021/12/20 00:34:42;;;;;;;0.30;0.20;;;;;;;;;;5016461;28;19957;-18
2021/12/20 00:42:41;;;;;;;0.60;0.20;;;;;;;;;;5016323;28;19915;-18
2021/12/20 00:45:08;;;;;;;0.68;0.20;;;;;;;;;;5016277;28;20033;-18
2021/12/20 00:47:35;;;;;;;0.30;0.15;;;;;;;;;;5016241;28;20026;-18
2021/12/20 00:50:03;;;;;;;0.30;0.20;;;;;;;;;;5016203;28;20464;-18
2021/12/20 00:52:31;;;;;;;1.65;0.30;;;;;;;;;;5015969;28;20472;-17
2021/12/20 00:54:57;;;;;;;0.22;0.20;;;;;;;;;;5016082;28;20042;-18
2021/12/20 00:57:25;;;;;;;0.50;0.20;;;;;;;;;;5016304;28;20026;-17
2021/12/20 00:59:52;;;;;;;1.25;0.30;;;;;;;;;;5015926;28;20020;-18
2021/12/20 01:02:19;;;;;;;0.17;0.10;;;;;;;;;;5016151;28;20109;-17
2021/12/20 01:04:46;;;;;;;0.63;0.25;;;;;;;;;;5015912;28;20026;-17
2021/12/20 01:07:14;;;;;;;0.73;0.30;;;;;;;;;;4995049;28;20053;-17
2021/12/20 01:09:40;;;;;;;0.77;0.32;;;;;;;;;;4995729;28;20030;-19
2021/12/20 01:12:15;;;;;;;0.40;0.10;;;;;;;;;;4995888;28;20074;-18
2021/12/20 01:14:41;;;;;;;0.35;0.20;;;;;;;;;;4994952;28;20037;-18
2021/12/20 01:17:08;;;;;;;0.30;0.20;;;;;;;;;;4996660;28;20442;-18
2021/12/20 01:19:34;;;;;;;0.40;0.20;;;;;;;;;;4996597;28;20034;-18
2021/12/20 01:22:01;;;;;;;0.32;0.10;;;;;;;;;;4995968;28;20335;-18
2021/12/20 01:24:28;;;;;;;0.40;0.40;;;;;;;;;;4996184;28;20038;-18
2021/12/20 01:26:54;;;;;;;0.35;0.10;;;;;;;;;;4995820;28;20034;-18
2021/12/20 01:29:21;;;;;;;0.22;0.20;;;;;;;;;;4994800;28;20034;-17
2021/12/20 01:31:47;;;;;;;0.45;0.10;;;;;;;;;;4995700;28;20034;-18
2021/12/20 01:34:13;;;;;;;1.00;0.30;;;;;;;;;;4995734;28;20097;-17
2021/12/20 01:36:41;;;;;;;0.63;0.30;;;;;;;;;;4995743;28;20145;-18
2021/12/20 01:39:07;;;;;;;1.17;0.28;;;;;;;;;;4995665;28;20026;-18
2021/12/20 01:41:38;;;;;;;0.63;0.20;;;;;;;;;;4995591;28;20049;-18
2021/12/20 01:44:05;;;;;;;0.50;0.30;;;;;;;;;;4995764;28;20401;-18
2021/12/20 01:46:33;;;;;;;0.70;0.22;;;;;;;;;;4995582;28;20037;-17
2021/12/20 01:49:01;;;;;;;0.30;0.20;;;;;;;;;;4995481;28;20036;-18
2021/12/20 01:51:48;;;;;;;0.22;0.15;;;;;;;;;;4995496;28;20447;-17
2021/12/20 01:54:16;;;;;;;1.20;0.30;;;;;;;;;;4995359;28;20034;-18
2021/12/20 01:56:44;;;;;;;0.75;0.20;;;;;;;;;;4994452;28;20026;-18
2021/12/20 01:59:12;;;;;;;1.38;0.40;;;;;;;;;;4995654;28;20464;-17
2021/12/20 02:01:40;;;;;;;0.35;0.20;;;;;;;;;;4995592;28;20054;-18
2021/12/20 02:04:09;;;;;;;0.65;0.38;;;;;;;;;;4995192;28;20038;-17
2021/12/20 02:06:44;;;;;;;0.50;0.22;;;;;;;;;;4999352;28;20056;-17
2021/12/20 02:09:13;;;;;;;0.55;0.20;;;;;;;;;;4997523;28;20034;-18
2021/12/20 02:11:40;;;;;;;0.75;0.32;;;;;;;;;;5015052;28;20029;-18
2021/12/20 02:14:07;;;;;;;;;;;;;;;;;;5015135;28;20029;-18
2021/12/20 02:16:34;;;;;;;0.50;0.20;;;;;;;;;;5014856;28;19951;-18
2021/12/20 02:19:01;;;;;;;0.30;0.20;;;;;;;;;;5015081;28;20097;-18
2021/12/20 02:21:28;;;;;;;0.38;0.20;;;;;;;;;;5014677;28;20392;-18
2021/12/20 02:23:54;;;;;;;0.57;0.27;;;;;;;;;;5014923;28;20029;-18
2021/12/20 02:26:24;;;;;;;0.40;0.10;;;;;;;;;;5015101;28;20030;-18
2021/12/20 02:28:55;;;;;;;1.85;0.28;;;;;;;;;;5014631;28;20030;-18
2021/12/20 02:37:14;;;;;;;0.30;0.20;;;;;;;;;;5014647;28;20052;-18
2021/12/20 02:39:42;;;;;;;0.17;0.15;;;;;;;;;;5014818;28;20030;-18
2021/12/20 02:42:12;;;;;;;0.20;0.20;;;;;;;;;;5014468;28;20041;-18
2021/12/20 02:44:46;;;;;;;0.35;0.20;;;;;;;;;;5014784;28;20041;-18
2021/12/20 02:47:25;;;;;;;0.20;0.13;;;;;;;;;;5014514;28;20025;-18
2021/12/20 02:49:53;;;;;;;0.50;0.20;;;;;;;;;;5014476;28;20233;-17
2021/12/20 02:52:20;;;;;;;0.35;0.20;;;;;;;;;;4997161;28;20030;-18
2021/12/20 02:54:46;;;;;;;0.63;0.43;;;;;;;;;;5014448;28;20103;-18
2021/12/20 02:57:13;;;;;;;0.75;0.38;;;;;;;;;;5014649;28;20033;-18
2021/12/20 02:59:40;;;;;;;1.13;0.30;;;;;;;;;;4997597;28;20338;-18
2021/12/20 03:02:09;;;;;;;0.70;0.20;;;;;;;;;;5014515;28;20396;-18
2021/12/20 03:04:37;;;;;;;0.25;0.17;;;;;;;;;;5014563;28;20040;-18
2021/12/20 03:07:06;;;;;;;0.40;0.20;;;;;;;;;;5014384;28;20158;-17
2021/12/20 03:09:36;;;;;;;0.90;0.30;;;;;;;;;;5014261;28;20037;-18
2021/12/20 03:12:03;;;;;;;1.02;0.30;;;;;;;;;;5014082;28;20109;-19
2021/12/20 03:14:36;;;;;;;0.75;0.32;;;;;;;;;;5014216;28;20033;-18
2021/12/20 03:17:03;;;;;;;1.45;0.25;;;;;;;;;;5014227;28;20335;-19
2021/12/20 03:19:30;;;;;;;0.20;0.17;;;;;;;;;;5014256;28;20101;-18
2021/12/20 03:21:57;;;;;;;0.20;0.13;;;;;;;;;;5014079;28;20109;-18
2021/12/20 03:24:24;;;;;;;0.88;0.30;;;;;;;;;;5014173;28;20120;-17
2021/12/20 03:26:51;;;;;;;0.43;0.10;;;;;;;;;;5014101;28;20045;-18
2021/12/20 03:29:18;;;;;;;1.30;0.20;;;;;;;;;;4997481;28;20396;-18
2021/12/20 03:31:45;;;;;;;0.73;0.30;;;;;;;;;;5014035;28;20057;-17
2021/12/20 03:34:11;;;;;;;0.82;0.20;;;;;;;;;;5016136;28;20079;-18
2021/12/20 03:36:38;;;;;;;1.38;0.30;;;;;;;;;;5017859;28;20048;-18
2021/12/20 03:39:07;;;;;;;0.90;0.30;;;;;;;;;;5017577;28;20029;-18
2021/12/20 03:41:35;;;;;;;0.35;0.25;;;;;;;;;;5017486;28;20037;-18
2021/12/20 03:44:02;;;;;;;0.52;0.20;;;;;;;;;;5017358;28;20066;-18
2021/12/20 03:46:31;;;;;;;0.40;0.20;;;;;;;;;;5017672;28;20026;-18
2021/12/20 03:48:58;;;;;;;0.30;0.17;;;;;;;;;;5017331;28;20026;-18
2021/12/20 03:51:24;;;;;;;0.40;0.30;;;;;;;;;;5017217;28;20084;-18
2021/12/20 03:53:51;;;;;;;0.45;0.17;;;;;;;;;;5017236;28;20022;-17
2021/12/20 03:56:18;;;;;;;0.40;0.20;;;;;;;;;;5017202;28;20058;-18
2021/12/20 03:58:45;;;;;;;3.55;0.20;;;;;;;;;;5017455;28;20353;-18
2021/12/20 04:01:13;;;;;;;1.25;0.30;;;;;;;;;;5017183;28;20030;-18
2021/12/20 04:03:41;;;;;;;0.30;0.13;;;;;;;;;;5017077;28;20026;-18
2021/12/20 04:06:09;;;;;;;0.93;0.20;;;;;;;;;;5017153;28;20056;-18
2021/12/20 04:08:36;;;;;;;1.08;0.30;;;;;;;;;;5017031;28;20092;-18
2021/12/20 04:11:03;;;;;;;1.25;0.30;;;;;;;;;;4999543;28;20034;-17
2021/12/20 04:13:29;;;;;;;0.55;0.25;;;;;;;;;;4999521;28;20025;-18
2021/12/20 04:15:56;;;;;;;1.42;0.30;;;;;;;;;;5016894;28;20479;-17
2021/12/20 04:18:24;;;;;;;0.40;0.30;;;;;;;;;;5017126;28;20072;-18
2021/12/20 04:20:51;;;;;;;0.30;0.22;;;;;;;;;;4999464;28;20022;-18
2021/12/20 04:23:18;;;;;;;0.95;0.30;;;;;;;;;;5016659;28;20030;-18
2021/12/20 04:25:45;;;;;;;0.40;0.20;;;;;;;;;;4999423;28;20037;-17
2021/12/20 04:28:12;;;;;;;0.90;0.20;;;;;;;;;;5016902;28;20030;-18
2021/12/20 04:30:38;;;;;;;1.58;0.30;;;;;;;;;;5016833;28;20100;-18
2021/12/20 04:33:06;;;;;;;0.93;0.30;;;;;;;;;;5016502;28;20022;-18
2021/12/20 04:35:32;;;;;;;0.73;0.30;;;;;;;;;;4999167;28;20050;-18
2021/12/20 04:38:00;;;;;;;0.68;0.20;;;;;;;;;;4999011;28;20056;-17
2021/12/20 04:40:28;;;;;;;1.05;0.30;;;;;;;;;;5016332;28;20334;-18
2021/12/20 04:42:56;;;;;;;0.90;0.45;;;;;;;;;;5016565;28;20491;-18
2021/12/20 04:45:24;;;;;;;0.52;0.22;;;;;;;;;;5016260;28;20038;-18
2021/12/20 04:47:50;;;;;;;0.77;0.20;;;;;;;;;;5016427;28;20040;-18
2021/12/20 04:50:17;;;;;;;0.20;0.10;;;;;;;;;;5016428;28;20361;-18
2021/12/20 04:52:43;;;;;;;;;;;;;;;;;;5016408;28;20034;-18
2021/12/20 04:55:12;;;;;;;1.10;0.30;;;;;;;;;;5016043;28;19913;-18
2021/12/20 04:57:41;;;;;;;3.33;0.30;;;;;;;;;;5015987;28;20398;-18
2021/12/20 05:00:09;;;;;;;3.03;0.63;;;;;;;;;;4998785;28;20018;-18
2021/12/20 05:02:36;;;;;;;1.75;0.50;;;;;;;;;;5447121;23;20377;-25
2021/12/20 05:05:03;;;;;;;1.98;0.65;;;;;;;;;;4995968;28;20037;-25
2021/12/20 05:07:33;;;;;;;1.15;0.40;;;;;;;;;;4996052;28;20109;-26
2021/12/20 05:10:02;;;;;;;2.22;0.43;;;;;;;;;;4996027;28;20107;-25
2021/12/20 05:12:28;;;;;;;2.60;1.10;;;;;;;;;;4995853;28;20472;-25
2021/12/20 05:14:55;;;;;;;2.90;0.43;;;;;;;;;;4994777;28;20457;-25
2021/12/20 05:17:23;;;;;;;0.47;0.20;;;;;;;;;;4995815;28;20027;-25
2021/12/20 05:19:49;;;;;;;9.25;0.50;;;;;;;;;;4994585;28;20408;-24
2021/12/20 05:22:16;;;;;;;4.65;0.50;;;;;;;;;;4996023;28;20052;-24
2021/12/20 05:24:42;;;;;;;1.40;0.30;;;;;;;;;;4994499;28;20092;-24
2021/12/20 05:27:09;;;;;;;5.50;0.50;;;;;;;;;;4995433;28;20513;-24
2021/12/20 05:29:36;;;;;;;4.22;0.80;;;;;;;;;;4995354;28;20393;-24
2021/12/20 05:32:05;;;;;;;2.15;0.20;;;;;;;;;;4995657;28;20382;-24
2021/12/20 05:34:32;;;;;;;2.80;0.43;;;;;;;;;;4994409;28;20089;-24
2021/12/20 05:36:59;;;;;;;1.75;0.50;;;;;;;;;;4995566;28;20097;-24
2021/12/20 05:39:26;;;;;;;14.20;1.83;;;;;;;;;;4995220;28;20071;-24
2021/12/20 05:41:53;;;;;;;5.03;0.40;;;;;;;;;;4995073;28;20058;-25
2021/12/20 05:44:20;;;;;;;8.00;0.70;;;;;;;;;;4993962;28;20034;-25
2021/12/20 05:46:47;;;;;;;4.43;0.80;;;;;;;;;;4995441;28;20338;-24
2021/12/20 05:49:13;;;;;;;4.90;0.50;;;;;;;;;;4995466;28;20034;-25
2021/12/20 05:51:40;;;;;;;4.53;0.67;;;;;;;;;;4994083;28;20433;-24
2021/12/20 05:54:07;;;;;;;4.55;0.43;;;;;;;;;;4995221;28;20712;-25
2021/12/20 05:56:33;;;;;;;10.57;1.40;;;;;;;;;;4994318;28;20026;-25
2021/12/20 05:59:00;;;;;;;3.03;0.82;;;;;;;;;;4994793;28;20026;-25
2021/12/20 06:01:26;;;;;;;17.17;2.42;;;;;;;;;;4993953;28;20088;-25
2021/12/20 06:03:54;;;;;;;3.10;0.40;;;;;;;;;;5009234;28;20050;-25
2021/12/20 06:06:20;;;;;;;6.70;0.60;;;;;;;;;;5014674;28;20052;-24
2021/12/20 06:08:46;;;;;;;5.63;0.47;;;;;;;;;;4997092;28;20049;-24
2021/12/20 06:11:14;;;;;;;1.27;0.30;;;;;;;;;;5014218;28;20034;-26
2021/12/20 06:13:41;;;;;;;;;;;;;;;;;;4997308;28;20343;-25
2021/12/20 06:16:08;;;;;;;4.30;0.52;;;;;;;;;;5014666;28;19909;-26
2021/12/20 06:18:35;;;;;;;1.90;0.40;;;;;;;;;;4997152;28;20449;-25
2021/12/20 06:21:02;;;;;;;7.68;0.60;;;;;;;;;;5014158;28;20525;-25
2021/12/20 06:23:28;;;;;;;4.03;0.43;;;;;;;;;;5014129;28;20472;-26
2021/12/20 06:25:55;;;;;;;6.37;0.70;;;;;;;;;;5014309;28;20399;-26
2021/12/20 06:28:22;;;;;;;5.38;0.70;;;;;;;;;;5014437;28;20026;-26
2021/12/20 06:30:49;;;;;;;9.82;1.33;;;;;;;;;;5014342;28;20113;-26
2021/12/20 06:33:17;;;;;;;3.78;0.52;;;;;;;;;;5013974;28;20026;-26
2021/12/20 06:35:43;;;;;;;5.82;0.65;;;;;;;;;;5014102;28;20151;-25
2021/12/20 06:38:17;;;;;;;4.80;0.50;;;;;;;;;;5013848;28;20338;-25
2021/12/20 06:40:45;;;;;;;4.53;0.98;;;;;;;;;;4996363;28;20034;-26
2021/12/20 06:43:14;;;;;;;8.95;0.77;;;;;;;;;;5013669;28;20061;-26
2021/12/20 06:45:41;;;;;;;8.10;1.10;;;;;;;;;;5013843;28;20041;-26
2021/12/20 06:48:08;;;;;;;5.65;0.68;;;;;;;;;;4996668;28;20022;-25
2021/12/20 06:50:34;;;;;;;10.10;1.55;;;;;;;;;;4996696;28;20131;-25
2021/12/20 06:53:01;;;;;;;4.43;1.07;;;;;;;;;;4996210;28;20461;-26
2021/12/20 06:55:29;;;;;;;6.43;1.00;;;;;;;;;;5013981;28;20046;-25
2021/12/20 06:57:56;;;;;;;9.85;1.05;;;;;;;;;;5013617;28;20034;-25
2021/12/20 07:00:23;;;;;;;5.45;0.60;;;;;;;;;;5013666;28;20389;-25
2021/12/20 07:02:50;;;;;;;6.57;0.90;;;;;;;;;;5013203;28;20058;-25
2021/12/20 07:05:17;;;;;;;7.13;0.63;;;;;;;;;;5013590;28;20026;-25
2021/12/20 07:07:43;;;;;;;5.63;1.13;;;;;;;;;;5015011;28;20105;-25
2021/12/20 07:10:10;;;;;;;4.00;0.77;;;;;;;;;;4999785;28;20272;-24
2021/12/20 07:12:38;;;;;;;3.30;0.45;;;;;;;;;;4999319;28;20288;-25
2021/12/20 07:15:06;;;;;;;6.13;0.90;;;;;;;;;;5016700;28;20379;-25
2021/12/20 07:17:33;;;;;;;4.05;0.63;;;;;;;;;;5016728;28;20064;-25
2021/12/20 07:20:00;;;;;;;15.45;3.08;;;;;;;;;;5016507;28;20046;-25
2021/12/20 07:22:26;;;;;;;5.00;0.90;;;;;;;;;;5016547;28;20040;-24
2021/12/20 07:24:52;;;;;;;6.50;0.50;;;;;;;;;;4999485;28;20041;-25
2021/12/20 07:27:23;;;;;;;7.45;0.73;;;;;;;;;;5016609;28;20441;-24
2021/12/20 07:29:50;;;;;;;4.72;0.50;;;;;;;;;;5016430;28;20034;-25
2021/12/20 07:32:16;;;;;;;;;;;;;;;;;;5016464;28;20115;-25
2021/12/20 07:34:44;;;;;;;3.10;0.77;;;;;;;;;;5016228;28;20303;-26
2021/12/20 07:37:11;;;;;;;4.72;0.90;;;;;;;;;;5016583;28;20572;-26
2021/12/20 07:39:37;;;;;;;14.82;1.63;;;;;;;;;;5016727;28;20022;-26
2021/12/20 07:42:04;;;;;;;9.23;1.40;;;;;;;;;;5017020;28;20026;-25
2021/12/20 07:44:30;;;;;;;8.70;0.88;;;;;;;;;;5016962;28;20120;-25
2021/12/20 07:46:58;;;;;;;4.53;0.50;;;;;;;;;;5016867;28;20041;-25
2021/12/20 07:49:26;;;;;;;5.72;1.00;;;;;;;;;;5016570;28;20105;-26
2021/12/20 07:51:53;;;;;;;10.55;1.23;;;;;;;;;;5016263;28;20116;-26
2021/12/20 07:54:21;;;;;;;6.03;0.98;;;;;;;;;;5016475;28;20022;-26
2021/12/20 07:56:47;;;;;;;6.55;0.98;;;;;;;;;;4999008;28;20022;-26
2021/12/20 07:59:14;;;;;;;33.40;3.73;;;;;;;;;;5016495;28;20416;-26
2021/12/20 08:01:40;;;;;;;11.43;1.10;;;;;;;;;;5016511;28;20438;-26
2021/12/20 08:04:08;;;;;;;11.85;1.15;;;;;;;;;;5016279;28;20376;-26
2021/12/20 08:06:35;;;;;;;9.80;1.42;;;;;;;;;;5016544;28;20105;-26
2021/12/20 08:09:01;;;;;;;5.75;0.90;;;;;;;;;;4999029;28;20022;-26
2021/12/20 08:11:29;;;;;;;6.90;1.00;;;;;;;;;;5016038;28;20057;-26
2021/12/20 08:13:55;;;;;;;12.68;1.77;;;;;;;;;;5016177;28;20076;-26
2021/12/20 08:16:22;;;;;;;11.40;1.53;;;;;;;;;;4998995;28;20030;-26
2021/12/20 08:18:49;;;;;;;12.47;1.83;;;;;;;;;;5015786;28;20014;-25
2021/12/20 08:21:16;;;;;;;21.05;1.85;;;;;;;;;;4999107;28;20411;-26
2021/12/20 08:23:43;;;;;;;13.80;1.38;;;;;;;;;;4998743;28;20491;-26
2021/12/20 08:26:10;;;;;;;16.70;1.92;;;;;;;;;;5016106;28;20049;-26
2021/12/20 08:28:37;;;;;;;11.02;1.40;;;;;;;;;;4998801;28;20030;-26
2021/12/20 08:31:07;;;;;;;13.93;1.00;;;;;;;;;;5016083;28;20038;-26
2021/12/20 08:33:35;;;;;;;8.68;1.48;;;;;;;;;;5016027;28;20037;-26
2021/12/20 08:36:06;;;;;;;10.63;1.05;;;;;;;;;;5016064;28;20092;-26
2021/12/20 08:38:33;;;;;;;5.03;0.90;;;;;;;;;;5016111;28;20056;-26
2021/12/20 08:41:00;;;;;;;15.13;2.40;;;;;;;;;;5015647;28;20103;-26
2021/12/20 08:43:30;;;;;;;8.07;0.90;;;;;;;;;;4998173;28;20026;-26
2021/12/20 08:45:59;;;;;;;9.43;1.35;;;;;;;;;;5015818;28;20034;-26
2021/12/20 08:48:27;;;;;;;13.77;1.45;;;;;;;;;;5015579;28;20030;-26
2021/12/20 08:50:54;;;;;;;13.07;2.17;;;;;;;;;;4982109;28;20033;-26
2021/12/20 08:53:21;;;;;;;18.95;2.17;;;;;;;;;;5015312;28;20352;-26
2021/12/20 08:55:47;;;;;;;9.00;1.08;;;;;;;;;;5015436;28;20022;-26
2021/12/20 08:58:14;;;;;;;8.70;1.60;;;;;;;;;;5015235;28;20117;-27
2021/12/20 09:00:41;;;;;;;7.22;1.73;;;;;;;;;;5015717;28;20476;-26
2021/12/20 09:03:08;;;;;;;;;;;;;;;;;;4995147;28;20053;-26
2021/12/20 09:05:36;;;;;;;17.30;2.88;;;;;;;;;;4994563;28;20032;-26
2021/12/20 09:08:04;;;;;;;11.80;1.98;;;;;;;;;;4995695;28;20077;-26
2021/12/20 09:10:33;;;;;;;11.48;2.10;;;;;;;;;;4994496;28;20116;-26
2021/12/20 09:13:01;;;;;;;17.83;3.20;;;;;;;;;;4995354;28;20157;-26
2021/12/20 09:15:27;;;;;;;13.02;2.83;;;;;;;;;;4995815;28;20050;-25
2021/12/20 09:17:55;;;;;;;17.98;2.60;;;;;;;;;;4995341;28;20048;-24
2021/12/20 09:20:25;;;;;;;12.25;2.20;;;;;;;;;;4995570;28;20101;-25
2021/12/20 09:23:02;;;;;;;21.65;3.33;;;;;;;;;;4995890;28;20349;-25
2021/12/20 09:25:29;;;;;;;13.57;2.50;;;;;;;;;;4994796;28;20364;-25
2021/12/20 09:27:57;;;;;;;18.77;3.67;;;;;;;;;;4995686;28;20034;-25
2021/12/20 09:30:26;;;;;;;15.20;2.42;;;;;;;;;;4995298;28;20414;-26
2021/12/20 09:32:56;;;;;;;10.63;2.00;;;;;;;;;;4994601;28;20560;-26
2021/12/20 09:35:23;;;;;;;11.02;1.92;;;;;;;;;;4995279;28;20034;-26
2021/12/20 09:37:51;;;;;;;;;;;;;;;;;;4995836;28;20030;-26
2021/12/20 09:40:30;;;;;;;10.07;1.83;;;;;;;;;;4995670;28;19948;-26
2021/12/20 09:43:00;;;;;;;7.85;1.98;;;;;;;;;;4994259;28;20022;-26
2021/12/20 09:45:28;;;;;;;18.20;2.55;;;;;;;;;;4995490;28;20034;-26
2021/12/20 09:47:55;;;;;;;12.65;2.00;;;;;;;;;;4993984;28;20054;-26
2021/12/20 09:50:21;;;;;;;7.82;1.92;;;;;;;;;;4995005;28;20145;-26
2021/12/20 09:52:48;;;;;;;12.87;1.63;;;;;;;;;;4995006;28;20057;-26
2021/12/20 09:55:15;;;;;;;10.32;1.90;;;;;;;;;;4994856;28;20092;-26
2021/12/20 09:57:42;;;;;;;11.07;1.80;;;;;;;;;;4994510;28;20041;-26
2021/12/20 10:00:11;;;;;;;10.50;1.48;;;;;;;;;;4994549;28;20029;-26
2021/12/20 10:02:38;;;;;;;7.68;1.20;;;;;;;;;;4998807;28;20104;-26
2021/12/20 10:05:04;;;;;;;7.80;1.83;;;;;;;;;;4996671;28;20384;-25
2021/12/20 10:07:33;;;;;;;15.13;1.60;;;;;;;;;;4996506;28;20038;-25
2021/12/20 10:10:03;;;;;;;8.43;1.75;;;;;;;;;;5013872;28;20376;-25
2021/12/20 10:12:29;;;;;;;7.80;1.50;;;;;;;;;;5013768;28;20330;-25
2021/12/20 10:15:00;;;;;;;9.95;1.50;;;;;;;;;;5013846;28;20060;-26
2021/12/20 10:17:29;;;;;;;9.48;1.55;;;;;;;;;;5013870;28;20365;-26
2021/12/20 10:19:56;;;;;;;9.40;2.00;;;;;;;;;;4996407;28;20460;-26
2021/12/20 10:22:24;;;;;;;12.35;2.20;;;;;;;;;;5013915;28;20025;-26
2021/12/20 10:24:50;;;;;;;10.98;2.10;;;;;;;;;;5013787;28;20033;-24
2021/12/20 10:27:30;;;;;;;6.00;1.43;;;;;;;;;;4996332;28;20054;-24
2021/12/20 10:30:19;;;;;;;9.18;1.65;;;;;;;;;;5013710;28;20265;-25
2021/12/20 10:32:47;;;;;;;9.35;2.20;;;;;;;;;;4996075;28;20511;-25
2021/12/20 10:35:32;;;;;;;9.57;1.30;;;;;;;;;;5013785;28;20368;-25
2021/12/20 10:38:18;;;;;;;7.13;1.70;;;;;;;;;;5013813;28;20022;-25
2021/12/20 10:40:44;;;;;;;;;;;;;;;;;;4997292;28;20030;-25
2021/12/20 10:43:14;;;;;;;8.47;2.03;;;;;;;;;;5016259;28;20240;-25
2021/12/20 10:45:41;;;;;;;14.70;2.28;;;;;;;;;;5018093;28;20117;-25
2021/12/20 10:48:10;;;;;;;8.77;1.80;;;;;;;;;;5017992;28;20539;-25
2021/12/20 10:50:42;;;;;;;12.20;2.10;;;;;;;;;;5017865;28;20037;-25
2021/12/20 10:53:22;;;;;;;11.10;2.28;;;;;;;;;;5017829;28;20056;-25
2021/12/20 10:55:54;;;;;;;18.30;2.40;;;;;;;;;;5000395;28;20036;-25
2021/12/20 10:58:38;;;;;;;18.27;2.00;;;;;;;;;;5018006;28;20018;-25
2021/12/20 11:01:07;;;;;;;13.15;2.25;;;;;;;;;;5017660;28;20036;-25
2021/12/20 11:03:39;;;;;;;9.90;1.77;;;;;;;;;;4996494;28;20125;-25
2021/12/20 11:11:28;;;;;;;12.32;2.67;;;;;;;;;;4997995;28;20053;-26
2021/12/20 11:13:55;;;;;;;11.82;1.85;;;;;;;;;;4996890;28;20023;-26
2021/12/20 11:16:30;;;;;;;10.80;1.83;;;;;;;;;;4997912;28;20410;-26
2021/12/20 11:19:13;;;;;;;15.57;2.28;;;;;;;;;;4997730;28;20030;-26
2021/12/20 11:21:49;;;;;;;15.73;2.33;;;;;;;;;;4997658;28;20093;-26
2021/12/20 11:24:20;;;;;;;12.33;2.00;;;;;;;;;;4996491;28;20476;-27
2021/12/20 11:26:46;;;;;;;13.98;3.10;;;;;;;;;;4997465;28;20492;-27
2021/12/20 11:29:13;;;;;;;12.00;1.83;;;;;;;;;;4997506;28;20092;-26
2021/12/20 11:31:41;;;;;;;12.98;2.25;;;;;;;;;;4996258;28;20574;-27
2021/12/20 11:34:09;;;;;;;17.63;3.85;;;;;;;;;;4997598;28;20053;-27
2021/12/20 11:36:35;;;;;;;;;;;;;;;;;;4997811;28;20019;-27
2021/12/20 11:39:07;;;;;;;7.18;2.15;;;;;;;;;;4997719;28;19960;-27
2021/12/20 11:41:34;;;;;;;7.97;1.63;;;;;;;;;;4997510;28;20045;-27
2021/12/20 11:44:01;;;;;;;;;;;;;;;;;;4997809;28;20030;-26
2021/12/20 11:46:51;;;;;;;8.38;2.53;;;;;;;;;;4997253;28;19916;-26
2021/12/20 11:49:19;;;;;;;12.07;2.25;;;;;;;;;;4987132;28;20053;-25
2021/12/20 11:51:56;;;;;;;15.23;2.30;;;;;;;;;;4996158;28;20030;-25
2021/12/20 11:54:45;;;;;;;12.55;2.47;;;;;;;;;;4995189;28;20026;-26
2021/12/20 11:57:29;;;;;;;13.32;2.55;;;;;;;;;;4996293;28;20449;-26
2021/12/20 12:00:00;;;;;;;11.10;2.50;;;;;;;;;;4997062;28;20026;-26
2021/12/20 12:02:31;;;;;;;9.55;1.75;;;;;;;;;;4998020;28;20037;-26
2021/12/20 12:05:00;;;;;;;12.32;2.30;;;;;;;;;;5016572;28;20034;-26
2021/12/20 12:07:29;;;;;;;10.65;2.15;;;;;;;;;;5016331;28;20025;-26
2021/12/20 12:10:03;;;;;;;12.50;2.50;;;;;;;;;;5016303;28;20049;-26
2021/12/20 12:12:30;;;;;;;19.00;4.15;;;;;;;;;;5016243;28;20038;-26
2021/12/20 12:14:58;;;;;;;;;;;;;;;;;;4998985;28;20040;-26
2021/12/20 12:17:47;;;;;;;12.27;3.35;;;;;;;;;;4998867;28;19905;-26
2021/12/20 12:20:37;;;;;;;8.10;2.78;;;;;;;;;;5016149;28;20095;-26
2021/12/20 12:23:13;;;;;;;9.40;2.45;;;;;;;;;;5015846;28;20053;-29
2021/12/20 12:25:43;;;;;;;12.25;2.55;;;;;;;;;;5016320;28;20463;-26
2021/12/20 12:28:26;;;;;;;9.70;2.67;;;;;;;;;;5015840;28;20088;-26
2021/12/20 12:31:00;;;;;;;8.93;2.65;;;;;;;;;;5015837;28;20040;-25
2021/12/20 12:33:29;;;;;;;10.18;2.45;;;;;;;;;;5015716;28;20026;-26
2021/12/20 12:35:57;;;;;;;10.88;2.78;;;;;;;;;;5015749;28;20093;-25
2021/12/20 12:38:27;;;;;;;11.50;2.17;;;;;;;;;;4998664;28;20034;-25
2021/12/20 12:41:19;;;;;;;12.77;2.42;;;;;;;;;;5015766;28;20052;-25
2021/12/20 12:43:46;;;;;;;13.07;2.35;;;;;;;;;;5005167;28;20030;-26
2021/12/20 12:46:13;;;;;;;12.63;2.50;;;;;;;;;;5015883;28;20022;-26
2021/12/20 12:48:42;;;;;;;15.40;4.10;;;;;;;;;;5015903;28;20026;-26
2021/12/20 12:51:21;;;;;;;7.93;2.47;;;;;;;;;;5015605;28;20060;-26
2021/12/20 12:53:49;;;;;;;16.92;3.03;;;;;;;;;;5015713;28;20026;-26
2021/12/20 12:56:24;;;;;;;15.18;2.33;;;;;;;;;;5015599;28;20026;-26
2021/12/20 12:59:09;;;;;;;17.75;3.08;;;;;;;;;;5015413;28;20081;-26
2021/12/20 13:01:38;;;;;;;14.07;2.17;;;;;;;;;;5015423;28;20026;-26
2021/12/20 13:04:05;;;;;;;12.73;2.40;;;;;;;;;;4998181;28;20061;-26
2021/12/20 13:06:31;;;;;;;14.33;2.70;;;;;;;;;;5015381;28;20106;-27
2021/12/20 13:09:00;;;;;;;8.90;2.53;;;;;;;;;;4997975;28;20132;-26
2021/12/20 13:11:29;;;;;;;8.70;1.83;;;;;;;;;;4997547;28;20124;-26
2021/12/20 13:14:30;;;;;;;11.55;2.33;;;;;;;;;;5015215;28;20025;-26
2021/12/20 13:17:00;;;;;;;10.35;2.22;;;;;;;;;;4998935;28;20094;-26
2021/12/20 13:19:30;;;;;;;16.35;2.53;;;;;;;;;;5015288;28;20049;-26
2021/12/20 13:21:57;;;;;;;15.55;2.95;;;;;;;;;;5015030;28;20037;-26
2021/12/20 13:24:23;;;;;;;;;;;;;;;;;;4998108;28;20053;-24
2021/12/20 13:26:49;;;;;;;9.43;2.33;;;;;;;;;;5015438;28;19937;-24
2021/12/20 13:29:16;;;;;;;7.68;2.17;;;;;;;;;;5014984;28;20073;-24
2021/12/20 13:31:43;;;;;;;10.50;1.65;;;;;;;;;;5014941;28;20033;-25
2021/12/20 13:34:14;;;;;;;17.63;2.65;;;;;;;;;;5015170;28;20076;-35
2021/12/20 13:36:50;;;;;;;12.40;2.63;;;;;;;;;;5014808;28;20152;-26
2021/12/20 13:39:17;;;;;;;18.52;2.92;;;;;;;;;;5014947;28;20111;-26
2021/12/20 13:41:43;;;;;;;22.17;4.63;;;;;;;;;;4997260;28;20179;-26
2021/12/20 13:44:20;;;;;;;17.50;3.50;;;;;;;;;;5014726;28;20419;-25
2021/12/20 13:46:49;;;;;;;18.13;4.03;;;;;;;;;;5014638;28;20230;-26
2021/12/20 13:49:17;;;;;;;20.40;4.22;;;;;;;;;;5014468;28;20364;-25
2021/12/20 13:51:43;;;;;;;22.33;5.60;;;;;;;;;;4996984;28;20117;-25
2021/12/20 13:54:37;;;;;;;21.47;4.03;;;;;;;;;;5014687;28;20093;-26
2021/12/20 13:57:11;;;;;;;21.55;4.20;;;;;;;;;;5011007;28;20099;-25
2021/12/20 13:59:52;;;;;;;19.02;4.78;;;;;;;;;;4997034;28;20033;-25
2021/12/20 14:02:20;;;;;;;15.05;3.75;;;;;;;;;;5014065;28;20105;-25
2021/12/20 14:04:48;;;;;;;9.40;2.22;;;;;;;;;;4997527;28;20038;-25
2021/12/20 14:07:26;;;;;;;15.43;3.40;;;;;;;;;;5014625;28;20022;-25
2021/12/20 14:10:09;;;;;;;16.80;3.28;;;;;;;;;;5014720;28;20330;-25
2021/12/20 14:12:37;;;;;;;15.13;3.55;;;;;;;;;;5014384;28;20057;-25
2021/12/20 14:15:09;;;;;;;15.63;3.47;;;;;;;;;;4996842;28;20104;-25
2021/12/20 14:17:51;;;;;;;18.50;3.45;;;;;;;;;;5013890;28;20030;-25
2021/12/20 14:20:18;;;;;;;15.20;3.22;;;;;;;;;;5014488;28;20040;-25
2021/12/20 14:22:44;;;;;;;;;;;;;;;;;;5014472;28;20052;-25
2021/12/20 14:25:11;;;;;;;22.87;2.23;;;;;;;;;;5014163;28;20003;-25
2021/12/20 14:27:37;;;;;;;12.55;2.83;;;;;;;;;;5014571;28;20392;-25
2021/12/20 14:30:19;;;;;;;12.60;2.40;;;;;;;;;;5014364;28;20129;-26
2021/12/20 14:32:48;;;;;;;18.08;2.58;;;;;;;;;;5013842;28;20743;-25
2021/12/20 14:35:24;;;;;;;11.50;2.47;;;;;;;;;;4997247;28;20034;-25
2021/12/20 14:37:51;;;;;;;9.02;1.98;;;;;;;;;;4996735;28;20077;-25
2021/12/20 14:40:40;;;;;;;20.58;2.88;;;;;;;;;;5014145;28;20112;-25
2021/12/20 14:43:10;;;;;;;11.18;2.28;;;;;;;;;;5001431;28;20479;-25
2021/12/20 14:45:37;;;;;;;15.02;2.45;;;;;;;;;;4996611;28;20108;-26
2021/12/20 14:48:23;;;;;;;17.23;3.60;;;;;;;;;;5014011;28;20048;-26
2021/12/20 14:50:50;;;;;;;11.43;1.67;;;;;;;;;;5013861;28;20029;-25
2021/12/20 14:53:17;;;;;;;;;;;;;;;;;;5014585;28;20361;-26
2021/12/20 14:55:44;;;;;;;15.73;2.20;;;;;;;;;;5013884;28;19909;-26
2021/12/20 14:58:10;;;;;;;12.10;2.30;;;;;;;;;;5014054;28;20048;-26
2021/12/20 15:00:39;;;;;;;26.27;3.37;;;;;;;;;;4996500;28;20037;-25
2021/12/20 15:03:06;;;;;;;16.95;2.90;;;;;;;;;;5013406;28;20054;-25
2021/12/20 15:05:32;;;;;;;20.63;2.53;;;;;;;;;;5013934;28;20144;-25
2021/12/20 15:08:00;;;;;;;14.20;2.40;;;;;;;;;;5013654;28;20512;-26
2021/12/20 15:10:26;;;;;;;16.70;2.63;;;;;;;;;;5013676;28;20098;-26